Norfolk, VA (23508)

12:16 PM EDT on March 27, 2015 (GMT -0400)
Larchmont- Martin | | Change Station
CLOSE
Current Station
Personal Weather Station
Location: Norfolk, VA
Elevation: 10 ft
Nearby Weather Stations

Elev 10 ft 36.90 °N, 76.31 °W | Updated 43 seconds ago

Overcast
Overcast
43.4 °F
Feels Like 37 °F
N
13.0
Wind Variable Wind from NNE
Gusts 17.0 mph

Today
High -- | Low -- °F
--% Chance of Precip.
Yesterday
High -- | Low -- °F
Precip. -- in
6:58 AM 7:22 PM
First Quarter, 54% visible
Pressure 29.78 in
Visibility 5.0 miles
Clouds Scattered Clouds 800 ft
Mostly Cloudy 1400 ft
Overcast 2100 ft
Windchill 37 °F
Dew Point 42 °F
Humidity 93%
Rainfall 4.73 in
Snow Depth Not available.
UV 0.0 out of 12
Pollen 2.70 out of 12
Air Quality Not available.
Flu Activity Not available.
METAR KNGU 271559Z 02022G25KT 5SM -DZ BR SCT008 BKN014 OVC021 08/05 A2977 RMK PK WND 01026/1515 RAB09E52DZB56 SLP082 P0000 T00830050

More Conditions Fewer Conditions

Pressure 29.78 in
Visibility 5.0 miles
Clouds Scattered Clouds 800 ft
Mostly Cloudy 1400 ft
Overcast 2100 ft
Windchill 37 °F
Dew Point 42 °F
Humidity 93%
Rainfall 4.73 in
Snow Depth Not available.
UV 0.0 out of 12
Pollen 2.70 out of 12
Air Quality Not available.
Flu Activity Not available.
METAR KNGU 271559Z 02022G25KT 5SM -DZ BR SCT008 BKN014 OVC021 08/05 A2977 RMK PK WND 01026/1515 RAB09E52DZB56 SLP082 P0000 T00830050

More Conditions Fewer Conditions

10-Day Weather Forecast

Almanac

Astronomy

Mar. 27, 2015 Rise Set
Actual Time
Civil Twilight
Nautical Twilight
Astronomical Twilight
Moon
Length of Visible Light
Length of Day
Tomorrow will be .
, % of the Moon is Illuminated

Today's Extremes

State Highs State Lows

Community

WunderPhotos

Upload Photos

1,808,766 photos uploaded!

WunderBlogs® & News

Nearby

Air Quality

  Air Quality AQ Index Pollutant
Not available.

Snow Depth

Station Depth Elevation

Earthquake Activity

City Distance Mag. Time & Date
Minimum magnitude displayed is 2.5.

Coastal Water Temperatures

Place Temperature

Stations

Nearby Weather Stations

Station Location Temp. Windchill Dew Point Humidity Wind Precip. Elev Updated Type